sensor_id;sensor_type;location;lat;lon;timestamp;pressure;altitude;pressure_sealevel;temperature;humidity
21980;BME280;11154;48.558;9.234;2023-04-19T00:01:37;98018.50;;;14.07;79.08
21980;BME280;11154;48.558;9.234;2023-04-19T00:03:40;98015.66;;;14.09;78.93
21980;BME280;11154;48.558;9.234;2023-04-19T00:05:42;98008.00;;;14.14;78.83
21980;BME280;11154;48.558;9.234;2023-04-19T00:07:43;98016.19;;;14.12;78.81
21980;BME280;11154;48.558;9.234;2023-04-19T00:09:46;98012.50;;;14.13;78.79
21980;BME280;11154;48.558;9.234;2023-04-19T00:11:48;98016.84;;;14.14;78.73
21980;BME280;11154;48.558;9.234;2023-04-19T00:13:49;98011.50;;;14.14;78.70
21980;BME280;11154;48.558;9.234;2023-04-19T00:15:51;98008.16;;;14.12;78.77
21980;BME280;11154;48.558;9.234;2023-04-19T00:17:53;98017.34;;;14.10;78.85
21980;BME280;11154;48.558;9.234;2023-04-19T00:19:56;98006.97;;;14.07;78.83
21980;BME280;11154;48.558;9.234;2023-04-19T00:21:58;98017.50;;;14.00;78.80
21980;BME280;11154;48.558;9.234;2023-04-19T00:24:01;98006.63;;;14.02;78.92
21980;BME280;11154;48.558;9.234;2023-04-19T00:26:03;98002.13;;;14.02;78.88
21980;BME280;11154;48.558;9.234;2023-04-19T00:28:04;98009.50;;;14.00;78.79
21980;BME280;11154;48.558;9.234;2023-04-19T00:30:07;98008.84;;;13.98;78.69
21980;BME280;11154;48.558;9.234;2023-04-19T00:32:09;98005.00;;;14.01;78.84
21980;BME280;11154;48.558;9.234;2023-04-19T00:34:10;98008.00;;;13.98;78.78
21980;BME280;11154;48.558;9.234;2023-04-19T00:36:13;98008.84;;;13.98;78.91
21980;BME280;11154;48.558;9.234;2023-04-19T00:38:15;98009.84;;;13.97;78.78
21980;BME280;11154;48.558;9.234;2023-04-19T00:40:17;98007.16;;;13.97;78.84
21980;BME280;11154;48.558;9.234;2023-04-19T00:42:18;97999.16;;;13.97;78.72
21980;BME280;11154;48.558;9.234;2023-04-19T00:44:20;98002.81;;;13.96;78.74
21980;BME280;11154;48.558;9.234;2023-04-19T00:46:22;97995.13;;;13.93;78.70
21980;BME280;11154;48.558;9.234;2023-04-19T00:48:24;97986.28;;;13.93;78.71
21980;BME280;11154;48.558;9.234;2023-04-19T00:50:26;97997.81;;;13.93;78.75
21980;BME280;11154;48.558;9.234;2023-04-19T00:52:29;97994.97;;;13.95;78.60
21980;BME280;11154;48.558;9.234;2023-04-19T00:54:32;97996.13;;;13.92;78.68
21980;BME280;11154;48.558;9.234;2023-04-19T00:56:35;97994.81;;;13.88;78.77
21980;BME280;11154;48.558;9.234;2023-04-19T00:58:37;97997.00;;;13.85;78.75
21980;BME280;11154;48.558;9.234;2023-04-19T01:00:39;97989.47;;;13.80;79.07
21980;BME280;11154;48.558;9.234;2023-04-19T01:02:41;97994.81;;;13.80;79.08
21980;BME280;11154;48.558;9.234;2023-04-19T01:04:43;97998.66;;;13.78;79.11
21980;BME280;11154;48.558;9.234;2023-04-19T01:06:45;97988.97;;;13.77;79.26
21980;BME280;11154;48.558;9.234;2023-04-19T01:08:48;97990.81;;;13.76;79.52
21980;BME280;11154;48.558;9.234;2023-04-19T01:10:50;97984.13;;;13.80;79.35
21980;BME280;11154;48.558;9.234;2023-04-19T01:12:51;97986.16;;;13.78;79.17
21980;BME280;11154;48.558;9.234;2023-04-19T01:14:53;97985.13;;;13.79;79.38
21980;BME280;11154;48.558;9.234;2023-04-19T01:16:55;97982.31;;;13.81;79.30
21980;BME280;11154;48.558;9.234;2023-04-19T01:18:57;97988.97;;;13.85;79.13
21980;BME280;11154;48.558;9.234;2023-04-19T01:20:59;97988.78;;;13.86;78.97
21980;BME280;11154;48.558;9.234;2023-04-19T01:23:02;97979.78;;;13.87;78.87
21980;BME280;11154;48.558;9.234;2023-04-19T01:25:04;97987.28;;;13.84;78.86
21980;BME280;11154;48.558;9.234;2023-04-19T01:27:06;97977.28;;;13.86;78.88
21980;BME280;11154;48.558;9.234;2023-04-19T01:29:08;97977.47;;;13.84;78.73
21980;BME280;11154;48.558;9.234;2023-04-19T01:31:09;97973.09;;;13.83;78.90
21980;BME280;11154;48.558;9.234;2023-04-19T01:33:11;97973.09;;;13.83;78.98
21980;BME280;11154;48.558;9.234;2023-04-19T01:35:13;97973.78;;;13.85;79.14
21980;BME280;11154;48.558;9.234;2023-04-19T01:37:14;97971.75;;;13.87;79.04
21980;BME280;11154;48.558;9.234;2023-04-19T01:39:17;97965.75;;;13.85;78.94
21980;BME280;11154;48.558;9.234;2023-04-19T01:41:19;97958.75;;;13.84;79.13
21980;BME280;11154;48.558;9.234;2023-04-19T01:43:22;97963.41;;;13.82;78.92
21980;BME280;11154;48.558;9.234;2023-04-19T01:45:23;97970.63;;;13.82;78.73
21980;BME280;11154;48.558;9.234;2023-04-19T01:47:25;97961.41;;;13.84;79.01
21980;BME280;11154;48.558;9.234;2023-04-19T01:49:27;97958.06;;;13.82;78.66
21980;BME280;11154;48.558;9.234;2023-04-19T01:51:29;97963.25;;;13.84;78.78
21980;BME280;11154;48.558;9.234;2023-04-19T01:53:31;97957.41;;;13.80;78.93
21980;BME280;11154;48.558;9.234;2023-04-19T01:55:34;97962.75;;;13.80;78.88
21980;BME280;11154;48.558;9.234;2023-04-19T01:57:35;97959.06;;;13.81;78.77
21980;BME280;11154;48.558;9.234;2023-04-19T01:59:37;97963.75;;;13.79;78.89
21980;BME280;11154;48.558;9.234;2023-04-19T02:01:39;97956.22;;;13.83;78.91
21980;BME280;11154;48.558;9.234;2023-04-19T02:03:40;97959.75;;;13.83;78.89
21980;BME280;11154;48.558;9.234;2023-04-19T02:05:42;97951.06;;;13.81;78.92
21980;BME280;11154;48.558;9.234;2023-04-19T02:07:44;97950.88;;;13.83;78.80
21980;BME280;11154;48.558;9.234;2023-04-19T02:09:45;97948.38;;;13.81;78.90
21980;BME280;11154;48.558;9.234;2023-04-19T02:11:48;97945.69;;;13.81;78.88
21980;BME280;11154;48.558;9.234;2023-04-19T02:13:50;97949.38;;;13.80;78.90
21980;BME280;11154;48.558;9.234;2023-04-19T02:15:52;97944.88;;;13.81;78.84
21980;BME280;11154;48.558;9.234;2023-04-19T02:17:53;97943.72;;;13.75;78.99
21980;BME280;11154;48.558;9.234;2023-04-19T02:19:55;97936.88;;;13.73;79.20
21980;BME280;11154;48.558;9.234;2023-04-19T02:21:57;97938.72;;;13.72;79.29
21980;BME280;11154;48.558;9.234;2023-04-19T02:23:59;97930.84;;;13.71;79.29
21980;BME280;11154;48.558;9.234;2023-04-19T02:26:01;97931.03;;;13.69;79.26
21980;BME280;11154;48.558;9.234;2023-04-19T02:28:04;97921.34;;;13.68;79.38
21980;BME280;11154;48.558;9.234;2023-04-19T02:30:07;97924.88;;;13.69;79.42
21980;BME280;11154;48.558;9.234;2023-04-19T02:32:10;97921.53;;;13.67;79.56
21980;BME280;11154;48.558;9.234;2023-04-19T02:34:12;97925.38;;;13.65;79.63
21980;BME280;11154;48.558;9.234;2023-04-19T02:36:14;97925.38;;;13.65;79.88
21980;BME280;11154;48.558;9.234;2023-04-19T02:38:15;97918.03;;;13.67;79.88
21980;BME280;11154;48.558;9.234;2023-04-19T02:40:17;97910.66;;;13.68;79.74
21980;BME280;11154;48.558;9.234;2023-04-19T02:42:20;97918.03;;;13.67;79.75
21980;BME280;11154;48.558;9.234;2023-04-19T02:44:23;97919.19;;;13.64;79.74
21980;BME280;11154;48.558;9.234;2023-04-19T02:46:25;97916.38;;;13.66;79.73
21980;BME280;11154;48.558;9.234;2023-04-19T02:48:26;97921.03;;;13.64;79.76
21980;BME280;11154;48.558;9.234;2023-04-19T02:50:28;97913.00;;;13.64;79.76
21980;BME280;11154;48.558;9.234;2023-04-19T02:52:30;97913.34;;;13.61;79.69
21980;BME280;11154;48.558;9.234;2023-04-19T02:54:32;97909.16;;;13.58;79.79
21980;BME280;11154;48.558;9.234;2023-04-19T02:56:33;97911.69;;;13.60;79.66
21980;BME280;11154;48.558;9.234;2023-04-19T02:58:35;97907.34;;;13.59;79.61
21980;BME280;11154;48.558;9.234;2023-04-19T03:00:38;97918.19;;;13.57;79.68
21980;BME280;11154;48.558;9.234;2023-04-19T03:02:40;97910.72;;;13.53;79.71
21980;BME280;11154;48.558;9.234;2023-04-19T03:04:42;97913.19;;;13.54;80.02
21980;BME280;11154;48.558;9.234;2023-04-19T03:06:44;97912.22;;;13.55;79.85
21980;BME280;11154;48.558;9.234;2023-04-19T03:08:46;97916.53;;;13.56;79.87
21980;BME280;11154;48.558;9.234;2023-04-19T03:10:48;97909.34;;;13.57;79.80
21980;BME280;11154;48.558;9.234;2023-04-19T03:12:49;97905.00;;;13.56;79.75
21980;BME280;11154;48.558;9.234;2023-04-19T03:14:51;97908.53;;;13.56;79.95
21980;BME280;11154;48.558;9.234;2023-04-19T03:16:54;97910.03;;;13.51;80.06
21980;BME280;11154;48.558;9.234;2023-04-19T03:18:56;97901.84;;;13.52;80.04
21980;BME280;11154;48.558;9.234;2023-04-19T03:20:57;97905.69;;;13.50;80.17
21980;BME280;11154;48.558;9.234;2023-04-19T03:22:59;97904.69;;;13.51;80.20
21980;BME280;11154;48.558;9.234;2023-04-19T03:25:01;97903.19;;;13.48;80.40
21980;BME280;11154;48.558;9.234;2023-04-19T03:27:03;97896.38;;;13.46;80.42
21980;BME280;11154;48.558;9.234;2023-04-19T03:29:05;97900.34;;;13.42;80.64
21980;BME280;11154;48.558;9.234;2023-04-19T03:31:07;97899.84;;;13.38;80.78
21980;BME280;11154;48.558;9.234;2023-04-19T03:33:10;97894.69;;;13.29;81.06
21980;BME280;11154;48.558;9.234;2023-04-19T03:35:11;97894.88;;;13.27;81.18
21980;BME280;11154;48.558;9.234;2023-04-19T03:37:13;97894.19;;;13.25;81.31
21980;BME280;11154;48.558;9.234;2023-04-19T03:39:15;97889.53;;;13.27;81.40
21980;BME280;11154;48.558;9.234;2023-04-19T03:41:19;97892.03;;;13.29;81.34
21980;BME280;11154;48.558;9.234;2023-04-19T03:43:21;97895.72;;;13.28;81.39
21980;BME280;11154;48.558;9.234;2023-04-19T03:45:23;97896.22;;;13.31;81.47
21980;BME280;11154;48.558;9.234;2023-04-19T03:47:26;97894.56;;;13.30;81.24
21980;BME280;11154;48.558;9.234;2023-04-19T03:49:29;97897.38;;;13.29;81.42
21980;BME280;11154;48.558;9.234;2023-04-19T03:51:31;97895.56;;;13.29;81.31
21980;BME280;11154;48.558;9.234;2023-04-19T03:53:32;97896.22;;;13.31;81.28
21980;BME280;11154;48.558;9.234;2023-04-19T03:55:34;97890.03;;;13.31;81.46
21980;BME280;11154;48.558;9.234;2023-04-19T03:57:36;97890.72;;;13.33;81.35
21980;BME280;11154;48.558;9.234;2023-04-19T03:59:37;97890.88;;;13.31;81.19
21980;BME280;11154;48.558;9.234;2023-04-19T04:01:39;97896.53;;;13.28;81.30
21980;BME280;11154;48.558;9.234;2023-04-19T04:03:42;97893.03;;;13.36;81.27
21980;BME280;11154;48.558;9.234;2023-04-19T04:05:45;97890.34;;;13.36;80.98
21980;BME280;11154;48.558;9.234;2023-04-19T04:07:46;97886.53;;;13.30;81.18
21980;BME280;11154;48.558;9.234;2023-04-19T04:09:48;97889.72;;;13.34;81.07
21980;BME280;11154;48.558;9.234;2023-04-19T04:11:50;97880.19;;;13.31;81.06
21980;BME280;11154;48.558;9.234;2023-04-19T04:13:53;97887.03;;;13.34;81.08
21980;BME280;11154;48.558;9.234;2023-04-19T04:15:55;97892.03;;;13.29;80.95
21980;BME280;11154;48.558;9.234;2023-04-19T04:17:57;97886.38;;;13.32;81.02
21980;BME280;11154;48.558;9.234;2023-04-19T04:19:59;97879.34;;;13.31;81.03
21980;BME280;11154;48.558;9.234;2023-04-19T04:22:02;97886.69;;;13.29;81.22
21980;BME280;11154;48.558;9.234;2023-04-19T04:24:05;97878.53;;;13.30;81.06
21980;BME280;11154;48.558;9.234;2023-04-19T04:26:09;97882.69;;;13.25;81.11
21980;BME280;11154;48.558;9.234;2023-04-19T04:28:13;97890.38;;;13.28;81.41
21980;BME280;11154;48.558;9.234;2023-04-19T04:30:15;97891.69;;;13.16;81.51
21980;BME280;11154;48.558;9.234;2023-04-19T04:32:16;97875.84;;;13.06;81.75
21980;BME280;11154;48.558;9.234;2023-04-19T04:34:22;97880.22;;;12.99;82.06
21980;BME280;11154;48.558;9.234;2023-04-19T04:36:24;97884.72;;;12.91;82.40
21980;BME280;11154;48.558;9.234;2023-04-19T04:38:27;97888.00;;;12.85;82.73
21980;BME280;11154;48.558;9.234;2023-04-19T04:40:29;97899.03;;;12.82;82.81
21980;BME280;11154;48.558;9.234;2023-04-19T04:42:31;97887.03;;;12.86;82.95
21980;BME280;11154;48.558;9.234;2023-04-19T04:44:33;97893.34;;;12.85;82.80
21980;BME280;11154;48.558;9.234;2023-04-19T04:46:35;97898.25;;;12.98;82.67
21980;BME280;11154;48.558;9.234;2023-04-19T04:48:36;97903.41;;;13.07;82.27
21980;BME280;11154;48.558;9.234;2023-04-19T04:50:38;97909.75;;;13.14;82.10
21980;BME280;11154;48.558;9.234;2023-04-19T04:52:40;97907.41;;;13.19;81.65
21980;BME280;11154;48.558;9.234;2023-04-19T04:54:43;97895.06;;;13.18;81.35
21980;BME280;11154;48.558;9.234;2023-04-19T04:56:45;97903.41;;;13.15;81.41
21980;BME280;11154;48.558;9.234;2023-04-19T04:58:47;97913.41;;;13.13;81.30
21980;BME280;11154;48.558;9.234;2023-04-19T05:00:48;97900.56;;;13.08;81.55
21980;BME280;11154;48.558;9.234;2023-04-19T05:02:50;97898.41;;;13.12;81.68
21980;BME280;11154;48.558;9.234;2023-04-19T05:04:52;97896.72;;;13.11;81.42
21980;BME280;11154;48.558;9.234;2023-04-19T05:06:53;97895.56;;;13.05;81.69
21980;BME280;11154;48.558;9.234;2023-04-19T05:08:55;97899.06;;;13.06;81.81
21980;BME280;11154;48.558;9.234;2023-04-19T05:10:58;97888.06;;;13.01;81.86
21980;BME280;11154;48.558;9.234;2023-04-19T05:13:00;97894.09;;;13.03;81.96
21980;BME280;11154;48.558;9.234;2023-04-19T05:15:02;97909.06;;;13.04;81.77
21980;BME280;11154;48.558;9.234;2023-04-19T05:17:04;97897.38;;;12.97;81.67
21980;BME280;11154;48.558;9.234;2023-04-19T05:19:06;97902.09;;;12.95;82.00
21980;BME280;11154;48.558;9.234;2023-04-19T05:21:08;97895.75;;;12.96;81.96
21980;BME280;11154;48.558;9.234;2023-04-19T05:23:10;97899.41;;;12.87;82.00
21980;BME280;11154;48.558;9.234;2023-04-19T05:25:12;97898.69;;;12.85;82.47
21980;BME280;11154;48.558;9.234;2023-04-19T05:27:15;97906.91;;;12.92;82.22
21980;BME280;11154;48.558;9.234;2023-04-19T05:29:16;97905.03;;;12.84;82.21
21980;BME280;11154;48.558;9.234;2023-04-19T05:31:18;97903.88;;;12.87;82.41
21980;BME280;11154;48.558;9.234;2023-04-19T05:33:20;97917.09;;;12.88;82.09
21980;BME280;11154;48.558;9.234;2023-04-19T05:35:22;97909.22;;;12.87;82.27
21980;BME280;11154;48.558;9.234;2023-04-19T05:37:23;97916.22;;;12.80;82.29
21980;BME280;11154;48.558;9.234;2023-04-19T05:39:25;97906.56;;;12.87;82.47
21980;BME280;11154;48.558;9.234;2023-04-19T05:41:27;97913.72;;;12.86;82.19
21980;BME280;11154;48.558;9.234;2023-04-19T05:43:30;97911.91;;;12.87;82.26
21980;BME280;11154;48.558;9.234;2023-04-19T05:45:32;97914.41;;;12.88;81.91
21980;BME280;11154;48.558;9.234;2023-04-19T05:47:33;97921.44;;;12.89;82.15
21980;BME280;11154;48.558;9.234;2023-04-19T05:49:35;97912.25;;;12.99;82.06
21980;BME280;11154;48.558;9.234;2023-04-19T05:51:37;97918.25;;;13.01;81.58
21980;BME280;11154;48.558;9.234;2023-04-19T05:53:39;97922.94;;;12.99;81.46
21980;BME280;11154;48.558;9.234;2023-04-19T05:55:40;97919.41;;;12.99;81.57
21980;BME280;11154;48.558;9.234;2023-04-19T05:57:42;97918.75;;;12.97;82.05
21980;BME280;11154;48.558;9.234;2023-04-19T05:59:45;97916.25;;;13.03;81.81
21980;BME280;11154;48.558;9.234;2023-04-19T06:01:47;97910.06;;;13.11;81.60
21980;BME280;11154;48.558;9.234;2023-04-19T06:03:49;97908.91;;;13.13;81.45
21980;BME280;11154;48.558;9.234;2023-04-19T06:05:52;97917.09;;;13.12;81.06
21980;BME280;11154;48.558;9.234;2023-04-19T06:07:54;97912.09;;;13.09;81.21
21980;BME280;11154;48.558;9.234;2023-04-19T06:09:56;97914.09;;;13.15;81.18
21980;BME280;11154;48.558;9.234;2023-04-19T06:11:58;97917.59;;;13.15;81.12
21980;BME280;11154;48.558;9.234;2023-04-19T06:13:59;97917.44;;;13.09;80.95
21980;BME280;11154;48.558;9.234;2023-04-19T06:16:03;97915.91;;;13.30;81.02
21980;BME280;11154;48.558;9.234;2023-04-19T06:18:05;97916.09;;;13.21;80.33
21980;BME280;11154;48.558;9.234;2023-04-19T06:20:09;97916.41;;;13.26;80.75
21980;BME280;11154;48.558;9.234;2023-04-19T06:22:11;97921.94;;;13.24;80.59
21980;BME280;11154;48.558;9.234;2023-04-19T06:24:13;97922.59;;;13.18;80.37
21980;BME280;11154;48.558;9.234;2023-04-19T06:26:14;97917.09;;;13.20;80.67
21980;BME280;11154;48.558;9.234;2023-04-19T06:28:16;97925.09;;;13.20;80.88
21980;BME280;11154;48.558;9.234;2023-04-19T06:30:19;97925.09;;;13.12;80.55
21980;BME280;11154;48.558;9.234;2023-04-19T06:32:22;97925.59;;;13.07;80.70
21980;BME280;11154;48.558;9.234;2023-04-19T06:34:25;97923.44;;;13.11;80.84
21980;BME280;11154;48.558;9.234;2023-04-19T06:36:28;97923.28;;;13.12;80.71
21980;BME280;11154;48.558;9.234;2023-04-19T06:38:29;97933.44;;;13.17;80.39
21980;BME280;11154;48.558;9.234;2023-04-19T06:40:31;97939.28;;;13.20;80.64
21980;BME280;11154;48.558;9.234;2023-04-19T06:42:33;97930.09;;;13.23;80.44
21980;BME280;11154;48.558;9.234;2023-04-19T06:44:35;97924.44;;;13.26;80.25
21980;BME280;11154;48.558;9.234;2023-04-19T06:46:37;97927.09;;;13.26;79.86
21980;BME280;11154;48.558;9.234;2023-04-19T06:48:40;97926.75;;;13.37;79.53
21980;BME280;11154;48.558;9.234;2023-04-19T06:50:41;97934.13;;;13.35;79.50
21980;BME280;11154;48.558;9.234;2023-04-19T06:52:43;97929.41;;;13.45;79.54
21980;BME280;11154;48.558;9.234;2023-04-19T06:54:46;97929.25;;;13.38;79.07
21980;BME280;11154;48.558;9.234;2023-04-19T06:56:49;97919.72;;;13.36;79.06
21980;BME280;11154;48.558;9.234;2023-04-19T06:58:50;97918.41;;;13.32;79.33
21980;BME280;11154;48.558;9.234;2023-04-19T07:00:52;97925.44;;;13.33;79.53
21980;BME280;11154;48.558;9.234;2023-04-19T07:02:54;97924.44;;;13.34;79.51
21980;BME280;11154;48.558;9.234;2023-04-19T07:04:57;97924.44;;;13.34;79.36
21980;BME280;11154;48.558;9.234;2023-04-19T07:06:59;97921.41;;;13.37;80.04
21980;BME280;11154;48.558;9.234;2023-04-19T07:09:00;97925.44;;;13.33;79.21
21980;BME280;11154;48.558;9.234;2023-04-19T07:11:04;97919.91;;;13.34;80.04
21980;BME280;11154;48.558;9.234;2023-04-19T07:13:05;97919.41;;;13.39;79.47
21980;BME280;11154;48.558;9.234;2023-04-19T07:15:08;97918.38;;;13.48;79.16
21980;BME280;11154;48.558;9.234;2023-04-19T07:17:10;97920.41;;;13.46;78.95
21980;BME280;11154;48.558;9.234;2023-04-19T07:19:13;97916.72;;;13.47;78.98
21980;BME280;11154;48.558;9.234;2023-04-19T07:21:16;97918.22;;;13.49;78.84
21980;BME280;11154;48.558;9.234;2023-04-19T07:23:17;97920.72;;;13.59;78.97
21980;BME280;11154;48.558;9.234;2023-04-19T07:25:19;97912.03;;;13.57;78.29
21980;BME280;11154;48.558;9.234;2023-04-19T07:27:20;97913.19;;;13.54;77.74
21980;BME280;11154;48.558;9.234;2023-04-19T07:29:22;97913.88;;;13.56;77.83
21980;BME280;11154;48.558;9.234;2023-04-19T07:31:24;97916.53;;;13.56;77.53
21980;BME280;11154;48.558;9.234;2023-04-19T07:33:27;97907.03;;;13.54;77.26
21980;BME280;11154;48.558;9.234;2023-04-19T07:35:29;97915.06;;;13.54;77.49
21980;BME280;11154;48.558;9.234;2023-04-19T07:37:32;97917.03;;;13.60;77.44
21980;BME280;11154;48.558;9.234;2023-04-19T07:39:34;97914.69;;;13.65;76.51
21980;BME280;11154;48.558;9.234;2023-04-19T07:41:36;97917.19;;;13.66;76.19
21980;BME280;11154;48.558;9.234;2023-04-19T07:43:38;97914.69;;;13.65;75.68
21980;BME280;11154;48.558;9.234;2023-04-19T07:45:40;97913.69;;;13.66;75.67
21980;BME280;11154;48.558;9.234;2023-04-19T07:47:42;97915.38;;;13.67;75.09
21980;BME280;11154;48.558;9.234;2023-04-19T07:49:43;97915.69;;;13.71;74.98
21980;BME280;11154;48.558;9.234;2023-04-19T07:51:45;97909.16;;;13.74;74.90
21980;BME280;11154;48.558;9.234;2023-04-19T07:53:48;97910.13;;;13.81;75.06
21980;BME280;11154;48.558;9.234;2023-04-19T07:55:50;97906.47;;;13.82;74.15
21980;BME280;11154;48.558;9.234;2023-04-19T07:57:52;97905.78;;;13.80;74.27
21980;BME280;11154;48.558;9.234;2023-04-19T07:59:53;97894.91;;;13.81;74.04
21980;BME280;11154;48.558;9.234;2023-04-19T08:01:58;97901.59;;;13.85;74.14
21980;BME280;11154;48.558;9.234;2023-04-19T08:04:00;97898.25;;;13.83;73.30
21980;BME280;11154;48.558;9.234;2023-04-19T08:06:05;97892.22;;;13.89;73.54
21980;BME280;11154;48.558;9.234;2023-04-19T08:08:07;97892.56;;;13.86;73.67
21980;BME280;11154;48.558;9.234;2023-04-19T08:10:11;97898.75;;;13.87;73.13
21980;BME280;11154;48.558;9.234;2023-04-19T08:12:12;97894.72;;;13.91;73.14
21980;BME280;11154;48.558;9.234;2023-04-19T08:14:15;97888.53;;;13.90;73.27
21980;BME280;11154;48.558;9.234;2023-04-19T08:16:16;97889.53;;;13.97;74.23
21980;BME280;11154;48.558;9.234;2023-04-19T08:18:18;97881.16;;;13.92;73.24
21980;BME280;11154;48.558;9.234;2023-04-19T08:20:20;97880.34;;;13.92;73.25
21980;BME280;11154;48.558;9.234;2023-04-19T08:22:22;97887.84;;;13.96;73.29
21980;BME280;11154;48.558;9.234;2023-04-19T08:24:24;97887.69;;;13.90;71.94
21980;BME280;11154;48.558;9.234;2023-04-19T08:26:27;97893.72;;;13.84;72.43
21980;BME280;11154;48.558;9.234;2023-04-19T08:28:29;97883.03;;;13.84;73.24
21980;BME280;11154;48.558;9.234;2023-04-19T08:30:31;97884.03;;;13.91;73.28
21980;BME280;11154;48.558;9.234;2023-04-19T08:32:33;97878.50;;;13.92;72.84
21980;BME280;11154;48.558;9.234;2023-04-19T08:34:35;97888.66;;;13.97;72.94
21980;BME280;11154;48.558;9.234;2023-04-19T08:36:37;97891.00;;;14.00;72.69
21980;BME280;11154;48.558;9.234;2023-04-19T08:38:39;97887.16;;;14.02;72.77
21980;BME280;11154;48.558;9.234;2023-04-19T08:40:44;97881.94;;;14.09;72.68
21980;BME280;11154;48.558;9.234;2023-04-19T08:42:48;97885.63;;;14.08;71.33
21980;BME280;11154;48.558;9.234;2023-04-19T08:44:50;97884.13;;;14.13;71.86
21980;BME280;11154;48.558;9.234;2023-04-19T08:46:53;97882.63;;;14.03;70.87
21980;BME280;11154;48.558;9.234;2023-04-19T08:48:58;97873.41;;;14.05;71.57
21980;BME280;11154;48.558;9.234;2023-04-19T08:51:01;97878.78;;;14.13;71.81
21980;BME280;11154;48.558;9.234;2023-04-19T08:53:03;97877.72;;;14.22;71.82
21980;BME280;11154;48.558;9.234;2023-04-19T08:55:07;97878.03;;;14.27;71.30
21980;BME280;11154;48.558;9.234;2023-04-19T08:57:09;97879.03;;;14.26;70.35
21980;BME280;11154;48.558;9.234;2023-04-19T08:59:13;97876.41;;;14.18;69.93
21980;BME280;11154;48.558;9.234;2023-04-19T09:01:15;97871.53;;;14.22;70.25
21980;BME280;11154;48.558;9.234;2023-04-19T09:03:16;97873.03;;;14.24;70.01
21980;BME280;11154;48.558;9.234;2023-04-19T09:05:18;97874.34;;;14.28;70.65
21980;BME280;11154;48.558;9.234;2023-04-19T09:07:22;97870.13;;;14.34;70.86
21980;BME280;11154;48.558;9.234;2023-04-19T09:09:25;97868.97;;;14.36;70.27
21980;BME280;11154;48.558;9.234;2023-04-19T09:11:35;97866.22;;;14.44;70.91
21980;BME280;11154;48.558;9.234;2023-04-19T09:13:38;97866.38;;;14.50;71.17
21980;BME280;11154;48.558;9.234;2023-04-19T09:15:43;97861.97;;;14.57;70.87
21980;BME280;11154;48.558;9.234;2023-04-19T09:18:02;97865.13;;;14.61;71.31
21980;BME280;11154;48.558;9.234;2023-04-19T09:20:05;97857.81;;;14.55;71.61
21980;BME280;11154;48.558;9.234;2023-04-19T09:22:11;97865.16;;;14.53;70.85
21980;BME280;11154;48.558;9.234;2023-04-19T09:24:13;97856.00;;;14.47;71.17
21980;BME280;11154;48.558;9.234;2023-04-19T09:26:15;97853.81;;;14.51;71.21
21980;BME280;11154;48.558;9.234;2023-04-19T09:28:17;97853.16;;;14.49;70.70
21980;BME280;11154;48.558;9.234;2023-04-19T09:30:21;97854.47;;;14.53;71.26
21980;BME280;11154;48.558;9.234;2023-04-19T09:32:27;97852.94;;;14.58;71.59
21980;BME280;11154;48.558;9.234;2023-04-19T09:34:29;97847.75;;;14.57;71.28
21980;BME280;11154;48.558;9.234;2023-04-19T09:36:32;97853.75;;;14.59;70.48
21980;BME280;11154;48.558;9.234;2023-04-19T09:38:45;97850.38;;;14.65;70.65
21980;BME280;11154;48.558;9.234;2023-04-19T09:40:47;97831.91;;;14.70;70.36
21980;BME280;11154;48.558;9.234;2023-04-19T09:42:49;97830.56;;;14.74;70.46
21980;BME280;11154;48.558;9.234;2023-04-19T09:44:55;97833.06;;;14.75;70.01
21980;BME280;11154;48.558;9.234;2023-04-19T09:46:58;97826.56;;;14.70;69.97
21980;BME280;11154;48.558;9.234;2023-04-19T09:49:18;97829.63;;;14.67;69.46
21980;BME280;11154;48.558;9.234;2023-04-19T09:51:20;97833.28;;;14.66;69.97
21980;BME280;11154;48.558;9.234;2023-04-19T09:53:23;97831.63;;;14.65;69.19
21980;BME280;11154;48.558;9.234;2023-04-19T09:55:26;97829.91;;;14.72;68.65
21980;BME280;11154;48.558;9.234;2023-04-19T09:57:29;97824.13;;;14.83;69.67
21980;BME280;11154;48.558;9.234;2023-04-19T09:59:31;97821.38;;;14.91;69.56
21980;BME280;11154;48.558;9.234;2023-04-19T10:01:37;97813.22;;;14.84;67.48
21980;BME280;11154;48.558;9.234;2023-04-19T10:03:41;97813.88;;;14.86;67.36
21980;BME280;11154;48.558;9.234;2023-04-19T10:05:44;97814.00;;;14.93;67.30
21980;BME280;11154;48.558;9.234;2023-04-19T10:07:47;97815.28;;;14.97;67.73
21980;BME280;11154;48.558;9.234;2023-04-19T10:09:50;97809.47;;;14.93;67.50
21980;BME280;11154;48.558;9.234;2023-04-19T10:11:55;97807.06;;;14.98;67.88
21980;BME280;11154;48.558;9.234;2023-04-19T10:13:59;97804.84;;;15.02;68.20
21980;BME280;11154;48.558;9.234;2023-04-19T10:16:02;97812.72;;;15.03;68.19
21980;BME280;11154;48.558;9.234;2023-04-19T10:18:04;97802.28;;;14.94;66.21
21980;BME280;11154;48.558;9.234;2023-04-19T10:20:10;97803.84;;;15.03;65.30
21980;BME280;11154;48.558;9.234;2023-04-19T10:22:15;97795.88;;;14.95;64.63
21980;BME280;11154;48.558;9.234;2023-04-19T10:24:17;97798.22;;;14.98;65.62
21980;BME280;11154;48.558;9.234;2023-04-19T10:26:20;97796.19;;;15.00;65.95
21980;BME280;11154;48.558;9.234;2023-04-19T10:28:22;97793.13;;;15.03;65.56
21980;BME280;11154;48.558;9.234;2023-04-19T10:30:24;97795.81;;;15.03;65.64
21980;BME280;11154;48.558;9.234;2023-04-19T10:32:27;97798.03;;;14.99;65.57
21980;BME280;11154;48.558;9.234;2023-04-19T10:34:36;97801.38;;;15.01;65.35
21980;BME280;11154;48.558;9.234;2023-04-19T10:36:37;97802.72;;;14.97;66.29
21980;BME280;11154;48.558;9.234;2023-04-19T10:38:42;97798.56;;;14.95;66.31
21980;BME280;11154;48.558;9.234;2023-04-19T10:40:57;97799.22;;;14.97;65.54
21980;BME280;11154;48.558;9.234;2023-04-19T10:43:15;97794.53;;;14.99;65.67
21980;BME280;11154;48.558;9.234;2023-04-19T10:45:33;97789.78;;;15.01;65.76
21980;BME280;11154;48.558;9.234;2023-04-19T10:47:43;97792.94;;;15.04;66.13
21980;BME280;11154;48.558;9.234;2023-04-19T10:49:45;97781.88;;;15.07;65.27